sensor_id;sensor_type;location;lat;lon;timestamp;P1;durP1;ratioP1;P2;durP2;ratioP2
46899;SDS011;32647;49.382;7.078;2022-11-15T00:02:23;17.67;;;12.40;;
46899;SDS011;32647;49.382;7.078;2022-11-15T00:05:09;16.98;;;11.98;;
46899;SDS011;32647;49.382;7.078;2022-11-15T00:07:56;16.90;;;12.07;;
46899;SDS011;32647;49.382;7.078;2022-11-15T00:10:42;19.98;;;11.68;;
46899;SDS011;32647;49.382;7.078;2022-11-15T00:13:29;14.63;;;11.52;;
46899;SDS011;32647;49.382;7.078;2022-11-15T00:16:15;18.30;;;11.50;;
46899;SDS011;32647;49.382;7.078;2022-11-15T00:19:01;22.00;;;13.35;;
46899;SDS011;32647;49.382;7.078;2022-11-15T00:21:47;19.65;;;11.55;;
46899;SDS011;32647;49.382;7.078;2022-11-15T00:24:34;18.33;;;12.27;;
46899;SDS011;32647;49.382;7.078;2022-11-15T00:27:19;16.48;;;12.60;;
46899;SDS011;32647;49.382;7.078;2022-11-15T00:30:05;15.73;;;11.93;;
46899;SDS011;32647;49.382;7.078;2022-11-15T00:32:52;16.63;;;11.77;;
46899;SDS011;32647;49.382;7.078;2022-11-15T00:35:38;18.35;;;12.25;;
46899;SDS011;32647;49.382;7.078;2022-11-15T00:38:24;18.52;;;12.70;;
46899;SDS011;32647;49.382;7.078;2022-11-15T00:41:10;17.60;;;12.10;;
46899;SDS011;32647;49.382;7.078;2022-11-15T00:43:56;17.55;;;11.23;;
46899;SDS011;32647;49.382;7.078;2022-11-15T00:46:42;18.08;;;11.45;;
46899;SDS011;32647;49.382;7.078;2022-11-15T00:49:28;19.95;;;11.45;;
46899;SDS011;32647;49.382;7.078;2022-11-15T00:52:14;17.88;;;12.43;;
46899;SDS011;32647;49.382;7.078;2022-11-15T00:55:00;21.15;;;12.80;;
46899;SDS011;32647;49.382;7.078;2022-11-15T00:57:47;17.33;;;11.30;;
46899;SDS011;32647;49.382;7.078;2022-11-15T01:00:33;15.32;;;12.05;;
46899;SDS011;32647;49.382;7.078;2022-11-15T01:03:19;17.30;;;11.68;;
46899;SDS011;32647;49.382;7.078;2022-11-15T01:06:05;17.33;;;11.65;;
46899;SDS011;32647;49.382;7.078;2022-11-15T01:08:52;14.82;;;10.85;;
46899;SDS011;32647;49.382;7.078;2022-11-15T01:11:38;19.67;;;11.90;;
46899;SDS011;32647;49.382;7.078;2022-11-15T01:14:24;13.32;;;10.45;;
46899;SDS011;32647;49.382;7.078;2022-11-15T01:17:10;17.08;;;12.13;;
46899;SDS011;32647;49.382;7.078;2022-11-15T01:19:56;18.50;;;11.35;;
46899;SDS011;32647;49.382;7.078;2022-11-15T01:22:42;17.75;;;12.57;;
46899;SDS011;32647;49.382;7.078;2022-11-15T01:25:28;18.63;;;11.15;;
46899;SDS011;32647;49.382;7.078;2022-11-15T01:28:14;20.42;;;10.80;;
46899;SDS011;32647;49.382;7.078;2022-11-15T01:31:01;14.82;;;10.88;;
46899;SDS011;32647;49.382;7.078;2022-11-15T01:33:48;15.35;;;10.38;;
46899;SDS011;32647;49.382;7.078;2022-11-15T01:36:34;13.48;;;10.18;;
46899;SDS011;32647;49.382;7.078;2022-11-15T08:51:10;13.63;;;10.18;;
46899;SDS011;32647;49.382;7.078;2022-11-15T08:53:55;14.88;;;9.73;;
46899;SDS011;32647;49.382;7.078;2022-11-15T08:56:41;13.10;;;9.35;;
46899;SDS011;32647;49.382;7.078;2022-11-15T08:59:27;12.38;;;8.88;;
46899;SDS011;32647;49.382;7.078;2022-11-15T09:02:13;12.40;;;7.85;;
46899;SDS011;32647;49.382;7.078;2022-11-15T09:04:59;12.13;;;10.23;;
46899;SDS011;32647;49.382;7.078;2022-11-15T09:07:45;13.73;;;9.82;;
46899;SDS011;32647;49.382;7.078;2022-11-15T09:10:31;11.98;;;8.23;;
46899;SDS011;32647;49.382;7.078;2022-11-15T09:13:17;14.40;;;6.53;;
46899;SDS011;32647;49.382;7.078;2022-11-15T09:16:03;7.03;;;5.88;;
46899;SDS011;32647;49.382;7.078;2022-11-15T09:18:50;8.00;;;5.28;;
46899;SDS011;32647;49.382;7.078;2022-11-15T09:21:36;9.73;;;5.40;;
46899;SDS011;32647;49.382;7.078;2022-11-15T09:24:22;6.45;;;5.50;;
46899;SDS011;32647;49.382;7.078;2022-11-15T09:27:08;9.13;;;5.70;;
46899;SDS011;32647;49.382;7.078;2022-11-15T09:29:54;7.10;;;6.28;;
46899;SDS011;32647;49.382;7.078;2022-11-15T09:32:40;10.00;;;5.80;;
46899;SDS011;32647;49.382;7.078;2022-11-15T09:35:26;6.93;;;5.57;;
46899;SDS011;32647;49.382;7.078;2022-11-15T09:38:12;8.65;;;5.75;;
46899;SDS011;32647;49.382;7.078;2022-11-15T09:50:48;6.78;;;5.07;;
46899;SDS011;32647;49.382;7.078;2022-11-15T09:56:34;5.80;;;4.38;;
46899;SDS011;32647;49.382;7.078;2022-11-15T10:05:47;8.32;;;6.00;;
46899;SDS011;32647;49.382;7.078;2022-11-15T10:08:40;4.35;;;3.95;;
46899;SDS011;32647;49.382;7.078;2022-11-15T10:11:32;9.07;;;4.00;;
46899;SDS011;32647;49.382;7.078;2022-11-15T10:14:21;8.52;;;4.47;;
46899;SDS011;32647;49.382;7.078;2022-11-15T10:17:22;6.63;;;3.45;;
46899;SDS011;32647;49.382;7.078;2022-11-15T10:20:25;7.38;;;3.78;;
46899;SDS011;32647;49.382;7.078;2022-11-15T10:23:14;4.57;;;3.47;;
46899;SDS011;32647;49.382;7.078;2022-11-15T10:26:04;6.18;;;3.38;;
46899;SDS011;32647;49.382;7.078;2022-11-15T10:28:56;5.30;;;3.42;;
46899;SDS011;32647;49.382;7.078;2022-11-15T10:31:42;4.53;;;3.40;;
46899;SDS011;32647;49.382;7.078;2022-11-15T10:34:28;3.60;;;3.30;;
46899;SDS011;32647;49.382;7.078;2022-11-15T10:37:14;5.20;;;3.00;;
46899;SDS011;32647;49.382;7.078;2022-11-15T10:40:22;4.13;;;2.80;;
46899;SDS011;32647;49.382;7.078;2022-11-15T10:45:55;3.70;;;2.67;;
46899;SDS011;32647;49.382;7.078;2022-11-15T10:48:53;4.20;;;2.35;;
46899;SDS011;32647;49.382;7.078;2022-11-15T10:52:14;2.63;;;2.20;;
46899;SDS011;32647;49.382;7.078;2022-11-15T10:55:04;4.28;;;2.72;;
46899;SDS011;32647;49.382;7.078;2022-11-15T10:58:22;2.78;;;2.40;;
46899;SDS011;32647;49.382;7.078;2022-11-15T11:03:59;3.15;;;2.20;;
46899;SDS011;32647;49.382;7.078;2022-11-15T11:09:37;6.60;;;2.17;;
46899;SDS011;32647;49.382;7.078;2022-11-15T11:12:28;3.45;;;1.80;;
46899;SDS011;32647;49.382;7.078;2022-11-15T11:15:16;3.08;;;1.90;;
46899;SDS011;32647;49.382;7.078;2022-11-15T11:18:07;5.43;;;2.17;;
46899;SDS011;32647;49.382;7.078;2022-11-15T11:21:13;4.75;;;2.20;;
46899;SDS011;32647;49.382;7.078;2022-11-15T11:24:14;2.17;;;1.77;;
46899;SDS011;32647;49.382;7.078;2022-11-15T11:33:05;2.40;;;2.15;;
46899;SDS011;32647;49.382;7.078;2022-11-15T11:36:35;2.58;;;1.95;;
46899;SDS011;32647;49.382;7.078;2022-11-15T11:49:34;2.10;;;1.73;;
46899;SDS011;32647;49.382;7.078;2022-11-15T11:52:38;3.40;;;2.10;;
46899;SDS011;32647;49.382;7.078;2022-11-15T11:56:04;3.40;;;1.80;;
46899;SDS011;32647;49.382;7.078;2022-11-15T11:58:55;3.80;;;1.88;;
46899;SDS011;32647;49.382;7.078;2022-11-15T12:01:51;5.32;;;2.05;;
46899;SDS011;32647;49.382;7.078;2022-11-15T12:04:38;3.28;;;2.10;;
46899;SDS011;32647;49.382;7.078;2022-11-15T12:07:29;2.92;;;2.20;;
46899;SDS011;32647;49.382;7.078;2022-11-15T12:10:25;4.85;;;2.05;;
46899;SDS011;32647;49.382;7.078;2022-11-15T12:13:16;3.70;;;1.73;;
46899;SDS011;32647;49.382;7.078;2022-11-15T12:16:16;1.60;;;1.50;;
46899;SDS011;32647;49.382;7.078;2022-11-15T12:19:07;1.80;;;1.50;;
46899;SDS011;32647;49.382;7.078;2022-11-15T12:21:56;2.28;;;1.60;;
46899;SDS011;32647;49.382;7.078;2022-11-15T12:24:59;2.20;;;1.80;;
46899;SDS011;32647;49.382;7.078;2022-11-15T12:30:50;2.00;;;1.58;;
46899;SDS011;32647;49.382;7.078;2022-11-15T12:33:48;2.15;;;1.52;;
46899;SDS011;32647;49.382;7.078;2022-11-15T12:36:36;1.95;;;1.50;;
46899;SDS011;32647;49.382;7.078;2022-11-15T12:40:03;1.95;;;1.50;;
46899;SDS011;32647;49.382;7.078;2022-11-15T12:43:03;1.88;;;1.40;;
46899;SDS011;32647;49.382;7.078;2022-11-15T12:45:49;2.10;;;1.63;;
46899;SDS011;32647;49.382;7.078;2022-11-15T12:51:22;2.30;;;1.27;;
46899;SDS011;32647;49.382;7.078;2022-11-15T13:03:21;2.38;;;1.83;;
46899;SDS011;32647;49.382;7.078;2022-11-15T13:06:09;2.97;;;1.98;;
46899;SDS011;32647;49.382;7.078;2022-11-15T13:17:58;2.53;;;1.80;;
46899;SDS011;32647;49.382;7.078;2022-11-15T13:21:16;2.20;;;2.00;;
46899;SDS011;32647;49.382;7.078;2022-11-15T13:24:24;2.03;;;1.80;;
46899;SDS011;32647;49.382;7.078;2022-11-15T13:27:14;2.40;;;2.20;;
46899;SDS011;32647;49.382;7.078;2022-11-15T13:30:03;3.00;;;2.20;;
46899;SDS011;32647;49.382;7.078;2022-11-15T13:32:50;5.07;;;2.10;;
46899;SDS011;32647;49.382;7.078;2022-11-15T13:35:41;4.78;;;3.30;;
46899;SDS011;32647;49.382;7.078;2022-11-15T13:38:36;3.38;;;2.35;;
46899;SDS011;32647;49.382;7.078;2022-11-15T13:41:24;5.50;;;2.25;;
46899;SDS011;32647;49.382;7.078;2022-11-15T13:44:19;2.60;;;2.30;;
46899;SDS011;32647;49.382;7.078;2022-11-15T13:47:14;4.78;;;2.33;;
46899;SDS011;32647;49.382;7.078;2022-11-15T13:50:04;2.75;;;2.30;;
46899;SDS011;32647;49.382;7.078;2022-11-15T13:52:51;2.53;;;2.20;;
46899;SDS011;32647;49.382;7.078;2022-11-15T13:55:39;2.75;;;2.15;;
46899;SDS011;32647;49.382;7.078;2022-11-15T13:58:25;4.47;;;2.53;;
46899;SDS011;32647;49.382;7.078;2022-11-15T14:01:14;3.03;;;2.53;;
46899;SDS011;32647;49.382;7.078;2022-11-15T14:04:05;5.93;;;2.47;;
46899;SDS011;32647;49.382;7.078;2022-11-15T14:06:53;2.60;;;2.22;;
46899;SDS011;32647;49.382;7.078;2022-11-15T14:09:42;4.80;;;2.70;;
46899;SDS011;32647;49.382;7.078;2022-11-15T14:12:31;4.50;;;2.70;;
46899;SDS011;32647;49.382;7.078;2022-11-15T14:15:27;4.15;;;2.88;;
46899;SDS011;32647;49.382;7.078;2022-11-15T14:25:18;6.75;;;2.75;;
46899;SDS011;32647;49.382;7.078;2022-11-15T14:28:14;2.75;;;2.55;;
46899;SDS011;32647;49.382;7.078;2022-11-15T14:31:10;6.57;;;2.70;;
46899;SDS011;32647;49.382;7.078;2022-11-15T14:33:58;4.20;;;2.35;;
46899;SDS011;32647;49.382;7.078;2022-11-15T14:36:44;4.72;;;2.30;;
46899;SDS011;32647;49.382;7.078;2022-11-15T14:39:30;2.80;;;2.30;;
46899;SDS011;32647;49.382;7.078;2022-11-15T14:42:16;3.92;;;2.70;;
46899;SDS011;32647;49.382;7.078;2022-11-15T14:45:08;3.40;;;2.63;;
46899;SDS011;32647;49.382;7.078;2022-11-15T14:48:04;9.50;;;2.70;;
46899;SDS011;32647;49.382;7.078;2022-11-15T14:50:51;4.67;;;2.83;;
46899;SDS011;32647;49.382;7.078;2022-11-15T14:53:37;3.88;;;2.70;;
46899;SDS011;32647;49.382;7.078;2022-11-15T14:56:24;3.22;;;2.80;;
46899;SDS011;32647;49.382;7.078;2022-11-15T14:59:10;5.05;;;2.75;;
46899;SDS011;32647;49.382;7.078;2022-11-15T15:01:56;4.43;;;2.95;;
46899;SDS011;32647;49.382;7.078;2022-11-15T15:04:42;3.92;;;2.95;;
46899;SDS011;32647;49.382;7.078;2022-11-15T15:07:28;3.10;;;2.47;;
46899;SDS011;32647;49.382;7.078;2022-11-15T15:10:14;5.43;;;2.83;;
46899;SDS011;32647;49.382;7.078;2022-11-15T15:13:02;5.07;;;2.88;;
46899;SDS011;32647;49.382;7.078;2022-11-15T15:15:49;5.28;;;2.88;;
46899;SDS011;32647;49.382;7.078;2022-11-15T15:18:36;4.22;;;2.60;;
46899;SDS011;32647;49.382;7.078;2022-11-15T15:21:26;3.72;;;2.90;;
46899;SDS011;32647;49.382;7.078;2022-11-15T15:24:13;4.28;;;2.97;;
46899;SDS011;32647;49.382;7.078;2022-11-15T15:27:00;3.20;;;2.90;;
46899;SDS011;32647;49.382;7.078;2022-11-15T15:29:46;3.47;;;2.65;;
46899;SDS011;32647;49.382;7.078;2022-11-15T15:32:32;3.88;;;2.97;;
46899;SDS011;32647;49.382;7.078;2022-11-15T15:35:18;4.10;;;3.17;;
46899;SDS011;32647;49.382;7.078;2022-11-15T15:38:04;4.75;;;3.33;;
46899;SDS011;32647;49.382;7.078;2022-11-15T15:40:51;6.60;;;3.40;;
46899;SDS011;32647;49.382;7.078;2022-11-15T15:43:37;6.90;;;3.88;;
46899;SDS011;32647;49.382;7.078;2022-11-15T15:46:23;5.75;;;3.55;;
46899;SDS011;32647;49.382;7.078;2022-11-15T15:49:09;8.18;;;3.50;;
46899;SDS011;32647;49.382;7.078;2022-11-15T15:51:55;4.18;;;3.13;;
46899;SDS011;32647;49.382;7.078;2022-11-15T15:54:42;3.88;;;3.10;;
46899;SDS011;32647;49.382;7.078;2022-11-15T15:57:28;3.70;;;3.30;;
46899;SDS011;32647;49.382;7.078;2022-11-15T16:00:15;5.55;;;3.33;;
46899;SDS011;32647;49.382;7.078;2022-11-15T16:03:01;6.18;;;3.30;;
46899;SDS011;32647;49.382;7.078;2022-11-15T16:05:51;5.70;;;3.10;;
46899;SDS011;32647;49.382;7.078;2022-11-15T16:08:37;3.50;;;3.00;;
46899;SDS011;32647;49.382;7.078;2022-11-15T16:11:22;4.65;;;3.00;;
46899;SDS011;32647;49.382;7.078;2022-11-15T16:14:08;6.40;;;3.72;;
46899;SDS011;32647;49.382;7.078;2022-11-15T16:16:54;5.82;;;4.75;;
46899;SDS011;32647;49.382;7.078;2022-11-15T16:19:40;9.98;;;4.50;;
46899;SDS011;32647;49.382;7.078;2022-11-15T16:22:26;6.60;;;4.22;;
46899;SDS011;32647;49.382;7.078;2022-11-15T16:25:14;6.55;;;4.50;;
46899;SDS011;32647;49.382;7.078;2022-11-15T16:28:00;5.65;;;4.25;;
46899;SDS011;32647;49.382;7.078;2022-11-15T16:30:46;7.57;;;5.03;;
46899;SDS011;32647;49.382;7.078;2022-11-15T16:33:32;8.77;;;4.90;;
46899;SDS011;32647;49.382;7.078;2022-11-15T16:36:19;9.73;;;5.30;;
46899;SDS011;32647;49.382;7.078;2022-11-15T16:39:10;8.10;;;5.95;;
46899;SDS011;32647;49.382;7.078;2022-11-15T16:41:58;7.88;;;5.75;;
46899;SDS011;32647;49.382;7.078;2022-11-15T16:44:44;7.03;;;4.55;;
46899;SDS011;32647;49.382;7.078;2022-11-15T16:47:30;8.32;;;4.35;;
46899;SDS011;32647;49.382;7.078;2022-11-15T16:50:21;7.53;;;3.85;;
46899;SDS011;32647;49.382;7.078;2022-11-15T16:53:12;5.25;;;3.63;;
46899;SDS011;32647;49.382;7.078;2022-11-15T16:55:59;6.63;;;4.15;;
46899;SDS011;32647;49.382;7.078;2022-11-15T16:58:45;5.82;;;4.38;;
46899;SDS011;32647;49.382;7.078;2022-11-15T17:01:32;5.72;;;4.03;;
46899;SDS011;32647;49.382;7.078;2022-11-15T17:04:19;7.55;;;4.55;;
46899;SDS011;32647;49.382;7.078;2022-11-15T17:07:07;5.35;;;3.90;;
46899;SDS011;32647;49.382;7.078;2022-11-15T17:09:53;5.75;;;3.67;;
46899;SDS011;32647;49.382;7.078;2022-11-15T17:12:39;6.18;;;4.47;;
46899;SDS011;32647;49.382;7.078;2022-11-15T17:15:25;6.28;;;5.00;;
46899;SDS011;32647;49.382;7.078;2022-11-15T17:18:11;6.15;;;4.40;;
46899;SDS011;32647;49.382;7.078;2022-11-15T17:21:03;7.15;;;4.45;;
46899;SDS011;32647;49.382;7.078;2022-11-15T17:23:54;7.57;;;4.68;;
46899;SDS011;32647;49.382;7.078;2022-11-15T17:26:40;12.45;;;9.45;;
46899;SDS011;32647;49.382;7.078;2022-11-15T17:29:27;12.95;;;8.50;;
46899;SDS011;32647;49.382;7.078;2022-11-15T17:32:14;5.82;;;4.95;;
46899;SDS011;32647;49.382;7.078;2022-11-15T17:35:00;20.60;;;4.63;;
46899;SDS011;32647;49.382;7.078;2022-11-15T17:37:46;5.10;;;4.07;;
46899;SDS011;32647;49.382;7.078;2022-11-15T17:40:32;5.47;;;4.25;;
46899;SDS011;32647;49.382;7.078;2022-11-15T17:43:18;5.90;;;4.72;;
46899;SDS011;32647;49.382;7.078;2022-11-15T17:46:06;6.35;;;4.57;;
46899;SDS011;32647;49.382;7.078;2022-11-15T17:48:54;5.57;;;4.53;;
46899;SDS011;32647;49.382;7.078;2022-11-15T17:51:41;7.20;;;4.57;;
46899;SDS011;32647;49.382;7.078;2022-11-15T17:54:27;9.85;;;4.88;;
46899;SDS011;32647;49.382;7.078;2022-11-15T17:57:13;7.78;;;5.13;;
46899;SDS011;32647;49.382;7.078;2022-11-15T17:59:59;5.88;;;4.93;;
46899;SDS011;32647;49.382;7.078;2022-11-15T18:02:45;5.90;;;4.43;;
46899;SDS011;32647;49.382;7.078;2022-11-15T18:05:31;6.55;;;5.18;;
46899;SDS011;32647;49.382;7.078;2022-11-15T18:08:17;7.43;;;5.07;;
46899;SDS011;32647;49.382;7.078;2022-11-15T18:11:07;8.50;;;5.13;;
46899;SDS011;32647;49.382;7.078;2022-11-15T18:13:59;6.90;;;5.07;;
46899;SDS011;32647;49.382;7.078;2022-11-15T18:16:46;6.32;;;5.20;;
46899;SDS011;32647;49.382;7.078;2022-11-15T18:19:32;12.43;;;5.90;;
46899;SDS011;32647;49.382;7.078;2022-11-15T18:22:19;8.07;;;6.45;;
46899;SDS011;32647;49.382;7.078;2022-11-15T18:25:05;7.32;;;5.57;;
46899;SDS011;32647;49.382;7.078;2022-11-15T18:27:51;8.57;;;6.10;;
46899;SDS011;32647;49.382;7.078;2022-11-15T18:30:39;8.27;;;5.90;;
46899;SDS011;32647;49.382;7.078;2022-11-15T18:33:26;6.78;;;5.90;;
46899;SDS011;32647;49.382;7.078;2022-11-15T18:36:14;9.07;;;7.45;;
46899;SDS011;32647;49.382;7.078;2022-11-15T18:39:02;9.77;;;6.97;;
46899;SDS011;32647;49.382;7.078;2022-11-15T18:41:49;9.80;;;8.20;;
46899;SDS011;32647;49.382;7.078;2022-11-15T18:44:36;12.00;;;8.27;;
46899;SDS011;32647;49.382;7.078;2022-11-15T18:47:21;13.23;;;9.45;;
46899;SDS011;32647;49.382;7.078;2022-11-15T18:50:07;10.80;;;8.02;;
46899;SDS011;32647;49.382;7.078;2022-11-15T18:52:53;11.18;;;8.70;;
46899;SDS011;32647;49.382;7.078;2022-11-15T18:55:39;10.43;;;8.68;;
46899;SDS011;32647;49.382;7.078;2022-11-15T18:58:27;8.68;;;7.53;;
46899;SDS011;32647;49.382;7.078;2022-11-15T19:01:20;10.45;;;7.15;;
46899;SDS011;32647;49.382;7.078;2022-11-15T19:04:08;10.07;;;6.95;;
46899;SDS011;32647;49.382;7.078;2022-11-15T19:06:56;10.13;;;6.88;;
46899;SDS011;32647;49.382;7.078;2022-11-15T19:09:42;9.15;;;7.15;;
46899;SDS011;32647;49.382;7.078;2022-11-15T19:12:28;8.38;;;6.53;;
46899;SDS011;32647;49.382;7.078;2022-11-15T19:15:14;10.45;;;7.38;;
46899;SDS011;32647;49.382;7.078;2022-11-15T19:18:00;9.70;;;7.70;;
46899;SDS011;32647;49.382;7.078;2022-11-15T19:20:46;8.85;;;7.63;;
46899;SDS011;32647;49.382;7.078;2022-11-15T19:23:38;9.65;;;8.23;;
46899;SDS011;32647;49.382;7.078;2022-11-15T19:26:25;12.07;;;8.23;;
46899;SDS011;32647;49.382;7.078;2022-11-15T19:29:12;12.35;;;9.55;;
46899;SDS011;32647;49.382;7.078;2022-11-15T19:31:58;12.55;;;8.45;;
46899;SDS011;32647;49.382;7.078;2022-11-15T19:34:44;11.02;;;8.18;;
46899;SDS011;32647;49.382;7.078;2022-11-15T19:37:30;12.00;;;8.90;;
46899;SDS011;32647;49.382;7.078;2022-11-15T19:40:16;11.70;;;9.18;;
46899;SDS011;32647;49.382;7.078;2022-11-15T19:43:02;12.00;;;8.88;;
46899;SDS011;32647;49.382;7.078;2022-11-15T19:45:52;9.27;;;7.97;;
46899;SDS011;32647;49.382;7.078;2022-11-15T19:48:43;10.03;;;8.17;;
46899;SDS011;32647;49.382;7.078;2022-11-15T19:51:29;10.60;;;8.90;;
46899;SDS011;32647;49.382;7.078;2022-11-15T19:54:15;10.57;;;8.45;;
46899;SDS011;32647;49.382;7.078;2022-11-15T19:57:01;9.07;;;7.95;;
46899;SDS011;32647;49.382;7.078;2022-11-15T19:59:47;12.63;;;9.23;;
46899;SDS011;32647;49.382;7.078;2022-11-15T20:02:33;11.15;;;9.23;;
46899;SDS011;32647;49.382;7.078;2022-11-15T20:05:19;13.32;;;10.43;;
46899;SDS011;32647;49.382;7.078;2022-11-15T20:08:05;11.30;;;10.10;;
46899;SDS011;32647;49.382;7.078;2022-11-15T20:10:51;12.80;;;9.98;;
46899;SDS011;32647;49.382;7.078;2022-11-15T20:13:37;14.60;;;9.82;;
46899;SDS011;32647;49.382;7.078;2022-11-15T20:16:24;13.10;;;10.05;;
46899;SDS011;32647;49.382;7.078;2022-11-15T20:19:10;15.70;;;10.63;;
46899;SDS011;32647;49.382;7.078;2022-11-15T20:21:56;15.05;;;10.30;;
46899;SDS011;32647;49.382;7.078;2022-11-15T20:24:42;16.10;;;11.50;;
46899;SDS011;32647;49.382;7.078;2022-11-15T20:27:28;15.93;;;11.80;;
46899;SDS011;32647;49.382;7.078;2022-11-15T20:30:14;13.43;;;9.82;;
46899;SDS011;32647;49.382;7.078;2022-11-15T20:33:01;15.70;;;10.13;;
46899;SDS011;32647;49.382;7.078;2022-11-15T20:35:47;14.25;;;10.98;;
46899;SDS011;32647;49.382;7.078;2022-11-15T20:38:33;15.88;;;12.85;;
46899;SDS011;32647;49.382;7.078;2022-11-15T20:41:19;18.40;;;13.13;;
46899;SDS011;32647;49.382;7.078;2022-11-15T20:44:05;17.98;;;13.32;;
46899;SDS011;32647;49.382;7.078;2022-11-15T20:46:51;19.80;;;13.90;;
46899;SDS011;32647;49.382;7.078;2022-11-15T20:49:37;19.40;;;14.70;;
46899;SDS011;32647;49.382;7.078;2022-11-15T20:52:23;19.10;;;13.93;;
46899;SDS011;32647;49.382;7.078;2022-11-15T20:55:09;21.30;;;14.65;;
46899;SDS011;32647;49.382;7.078;2022-11-15T20:57:55;22.15;;;15.45;;
46899;SDS011;32647;49.382;7.078;2022-11-15T21:00:41;30.02;;;19.02;;
46899;SDS011;32647;49.382;7.078;2022-11-15T21:03:28;22.88;;;14.88;;
46899;SDS011;32647;49.382;7.078;2022-11-15T21:06:14;25.45;;;15.43;;
46899;SDS011;32647;49.382;7.078;2022-11-15T21:09:02;22.60;;;14.13;;
46899;SDS011;32647;49.382;7.078;2022-11-15T21:12:06;22.03;;;16.60;;
46899;SDS011;32647;49.382;7.078;2022-11-15T21:14:57;20.23;;;12.88;;
46899;SDS011;32647;49.382;7.078;2022-11-15T21:17:43;24.83;;;17.00;;
46899;SDS011;32647;49.382;7.078;2022-11-15T21:20:29;31.15;;;18.85;;
46899;SDS011;32647;49.382;7.078;2022-11-15T21:23:15;29.67;;;20.63;;
46899;SDS011;32647;49.382;7.078;2022-11-15T21:26:01;19.48;;;14.80;;
46899;SDS011;32647;49.382;7.078;2022-11-15T21:28:47;27.60;;;15.90;;
46899;SDS011;32647;49.382;7.078;2022-11-15T21:31:33;23.67;;;14.73;;
46899;SDS011;32647;49.382;7.078;2022-11-15T21:34:19;21.88;;;13.30;;
46899;SDS011;32647;49.382;7.078;2022-11-15T21:37:05;22.27;;;13.35;;
46899;SDS011;32647;49.382;7.078;2022-11-15T21:39:52;31.38;;;18.52;;
46899;SDS011;32647;49.382;7.078;2022-11-15T21:42:37;22.48;;;14.85;;
46899;SDS011;32647;49.382;7.078;2022-11-15T21:45:23;20.45;;;14.15;;
46899;SDS011;32647;49.382;7.078;2022-11-15T21:48:09;21.60;;;14.55;;
46899;SDS011;32647;49.382;7.078;2022-11-15T21:50:56;23.20;;;13.95;;
46899;SDS011;32647;49.382;7.078;2022-11-15T21:53:46;26.70;;;15.45;;
46899;SDS011;32647;49.382;7.078;2022-11-15T21:56:32;20.27;;;12.50;;
46899;SDS011;32647;49.382;7.078;2022-11-15T21:59:18;15.20;;;11.45;;
46899;SDS011;32647;49.382;7.078;2022-11-15T22:02:04;25.42;;;15.07;;
46899;SDS011;32647;49.382;7.078;2022-11-15T22:05:01;18.70;;;13.75;;
46899;SDS011;32647;49.382;7.078;2022-11-15T22:07:47;17.90;;;12.23;;
46899;SDS011;32647;49.382;7.078;2022-11-15T22:10:33;21.52;;;13.60;;
46899;SDS011;32647;49.382;7.078;2022-11-15T22:13:19;24.30;;;15.30;;
46899;SDS011;32647;49.382;7.078;2022-11-15T22:16:05;22.77;;;14.07;;
46899;SDS011;32647;49.382;7.078;2022-11-15T22:18:52;24.88;;;14.68;;
46899;SDS011;32647;49.382;7.078;2022-11-15T22:21:38;19.55;;;12.82;;
46899;SDS011;32647;49.382;7.078;2022-11-15T22:24:25;25.27;;;14.60;;
46899;SDS011;32647;49.382;7.078;2022-11-15T22:27:11;26.25;;;16.20;;
46899;SDS011;32647;49.382;7.078;2022-11-15T22:29:56;22.05;;;14.57;;
46899;SDS011;32647;49.382;7.078;2022-11-15T22:32:43;22.15;;;14.07;;
46899;SDS011;32647;49.382;7.078;2022-11-15T22:35:29;23.35;;;14.02;;
46899;SDS011;32647;49.382;7.078;2022-11-15T22:38:15;24.33;;;13.82;;
46899;SDS011;32647;49.382;7.078;2022-11-15T22:41:01;22.63;;;13.43;;
46899;SDS011;32647;49.382;7.078;2022-11-15T22:43:47;17.75;;;12.77;;
46899;SDS011;32647;49.382;7.078;2022-11-15T22:46:33;21.75;;;13.70;;
46899;SDS011;32647;49.382;7.078;2022-11-15T22:49:19;18.88;;;12.63;;
46899;SDS011;32647;49.382;7.078;2022-11-15T22:52:05;26.58;;;13.98;;
46899;SDS011;32647;49.382;7.078;2022-11-15T22:54:51;13.77;;;10.57;;
46899;SDS011;32647;49.382;7.078;2022-11-15T22:57:37;16.10;;;10.65;;
46899;SDS011;32647;49.382;7.078;2022-11-15T23:00:23;19.50;;;12.40;;
46899;SDS011;32647;49.382;7.078;2022-11-15T23:03:09;15.15;;;10.95;;
46899;SDS011;32647;49.382;7.078;2022-11-15T23:06:02;14.07;;;9.93;;
46899;SDS011;32647;49.382;7.078;2022-11-15T23:08:50;20.92;;;12.63;;
46899;SDS011;32647;49.382;7.078;2022-11-15T23:11:36;24.73;;;14.15;;
46899;SDS011;32647;49.382;7.078;2022-11-15T23:14:40;20.67;;;12.90;;
46899;SDS011;32647;49.382;7.078;2022-11-15T23:17:26;17.02;;;10.20;;
46899;SDS011;32647;49.382;7.078;2022-11-15T23:20:12;12.80;;;9.38;;
46899;SDS011;32647;49.382;7.078;2022-11-15T23:22:58;13.27;;;9.30;;
46899;SDS011;32647;49.382;7.078;2022-11-15T23:25:44;15.15;;;10.48;;
46899;SDS011;32647;49.382;7.078;2022-11-15T23:28:30;14.75;;;10.52;;
46899;SDS011;32647;49.382;7.078;2022-11-15T23:31:18;14.90;;;10.35;;
46899;SDS011;32647;49.382;7.078;2022-11-15T23:34:22;13.93;;;9.27;;
46899;SDS011;32647;49.382;7.078;2022-11-15T23:37:10;18.95;;;10.30;;
46899;SDS011;32647;49.382;7.078;2022-11-15T23:39:57;13.40;;;9.23;;
46899;SDS011;32647;49.382;7.078;2022-11-15T23:42:43;12.77;;;9.60;;
46899;SDS011;32647;49.382;7.078;2022-11-15T23:45:29;13.85;;;8.30;;
46899;SDS011;32647;49.382;7.078;2022-11-15T23:48:15;13.90;;;9.80;;
46899;SDS011;32647;49.382;7.078;2022-11-15T23:51:01;14.38;;;10.15;;
46899;SDS011;32647;49.382;7.078;2022-11-15T23:53:47;17.42;;;10.27;;
46899;SDS011;32647;49.382;7.078;2022-11-15T23:56:34;12.68;;;8.40;;
46899;SDS011;32647;49.382;7.078;2022-11-15T23:59:20;11.93;;;8.93;;
